Time;durP1;ratioP1;P1;durP2;ratioP2;P2;SDS_P1;SDS_P2;PMS_P1;PMS_P2;Temp;Humidity;BMP_temperature;BMP_pressure;BME280_temperature;BME280_humidity;BME280_pressure;Samples;Min_cycle;Max_cycle;Signal;HPM_P1;HPM_P2
2023/03/12 00:00:20;;;;;;;15.98;4.65;;;;;;;;;;6192017;23;20005;-78
2023/03/12 00:02:46;;;;;;;12.73;5.97;;;;;;;;;;6191444;23;20005;-79
2023/03/12 00:05:13;;;;;;;11.00;6.40;;;;;;;;;;6191153;23;20012;-78
2023/03/12 00:07:39;;;;;;;15.18;6.30;;;;;;;;;;6191338;23;20375;-79
2023/03/12 00:10:05;;;;;;;15.55;6.20;;;;;;;;;;6191529;23;20028;-78
2023/03/12 00:12:38;;;;;;;15.35;7.78;;;;;;;;;;6191466;23;19997;-78
2023/03/12 00:15:07;;;;;;;15.88;7.82;;;;;;;;;;6165482;23;20001;-78
2023/03/12 00:17:43;;;;;;;22.50;9.45;;;;;;;;;;6192415;23;20347;-78
2023/03/12 00:20:16;;;;;;;15.50;7.20;;;;;;;;;;6192501;23;20027;-78
2023/03/12 00:22:42;;;;;;;13.70;6.28;;;;;;;;;;6192529;23;20004;-79
2023/03/12 00:25:12;;;;;;;9.70;5.95;;;;;;;;;;6192104;23;20009;-78
2023/03/12 00:27:38;;;;;;;11.27;5.97;;;;;;;;;;6191593;23;20023;-79
2023/03/12 00:30:05;;;;;;;12.95;5.57;;;;;;;;;;6191794;23;20637;-78
2023/03/12 00:32:34;;;;;;;8.35;4.60;;;;;;;;;;6191719;23;20044;-78
2023/03/12 00:35:00;;;;;;;9.50;5.05;;;;;;;;;;6191446;23;20377;-78
2023/03/12 00:37:26;;;;;;;6.03;3.90;;;;;;;;;;6191889;23;20424;-78
2023/03/12 00:39:52;;;;;;;14.38;4.93;;;;;;;;;;6191431;23;20008;-78
2023/03/12 00:42:19;;;;;;;9.98;4.38;;;;;;;;;;6191382;23;20001;-78
2023/03/12 00:44:45;;;;;;;8.70;3.92;;;;;;;;;;6190089;23;20008;-78
2023/03/12 00:47:11;;;;;;;7.75;4.18;;;;;;;;;;6190350;23;20026;-78
2023/03/12 00:49:37;;;;;;;8.55;4.38;;;;;;;;;;6190360;23;20012;-78
2023/03/12 00:52:03;;;;;;;7.25;4.50;;;;;;;;;;6193900;23;20005;-78
2023/03/12 00:54:29;;;;;;;6.72;4.28;;;;;;;;;;6193832;23;20004;-79
2023/03/12 00:56:55;;;;;;;5.93;3.85;;;;;;;;;;6191340;23;20001;-79
2023/03/12 00:59:22;;;;;;;5.85;3.97;;;;;;;;;;6190396;23;20459;-78
2023/03/12 01:01:55;;;;;;;9.73;4.07;;;;;;;;;;6191855;23;20001;-78
2023/03/12 01:04:21;;;;;;;8.35;4.15;;;;;;;;;;6191469;23;20016;-78
2023/03/12 01:06:47;;;;;;;6.88;4.50;;;;;;;;;;6191140;23;20001;-79
2023/03/12 01:09:13;;;;;;;6.90;4.00;;;;;;;;;;6191212;23;20645;-78
2023/03/12 01:11:39;;;;;;;6.38;4.30;;;;;;;;;;6191953;23;19997;-78
2023/03/12 01:14:06;;;;;;;8.93;4.40;;;;;;;;;;6192073;23;20076;-78
2023/03/12 01:16:32;;;;;;;8.30;4.35;;;;;;;;;;6191172;23;19993;-78
2023/03/12 01:18:59;;;;;;;6.55;4.32;;;;;;;;;;6191463;23;20003;-79
2023/03/12 01:21:26;;;;;;;8.88;4.78;;;;;;;;;;6189944;23;20071;-78
2023/03/12 01:23:52;;;;;;;7.40;4.57;;;;;;;;;;6189858;23;20005;-78
2023/03/12 01:26:18;;;;;;;7.28;4.63;;;;;;;;;;6189553;23;19997;-78
2023/03/12 01:28:44;;;;;;;8.00;4.13;;;;;;;;;;6188994;23;20446;-78
2023/03/12 01:31:12;;;;;;;9.25;3.97;;;;;;;;;;6189427;23;19997;-78
2023/03/12 01:33:38;;;;;;;9.13;4.18;;;;;;;;;;6189183;23;20714;-78
2023/03/12 01:36:04;;;;;;;7.63;4.03;;;;;;;;;;6189360;23;20028;-78
2023/03/12 01:38:30;;;;;;;8.13;3.88;;;;;;;;;;6189131;23;19997;-78
2023/03/12 01:40:56;;;;;;;8.35;3.63;;;;;;;;;;6188606;23;20095;-78
2023/03/12 01:43:40;;;;;;;7.15;4.38;;;;;;;;;;6189169;23;20001;-78
2023/03/12 01:46:32;;;;;;;5.93;3.60;;;;;;;;;;6197924;23;20080;-78
2023/03/12 01:49:09;;;;;;;10.48;3.95;;;;;;;;;;6198601;23;20619;-78
2023/03/12 01:51:55;;;;;;;10.07;3.90;;;;;;;;;;6198488;23;20008;-78
2023/03/12 01:54:26;;;;;;;8.90;3.80;;;;;;;;;;6195830;23;19997;-78
2023/03/12 01:56:53;;;;;;;8.10;4.35;;;;;;;;;;6193695;23;20001;-78
2023/03/12 01:59:22;;;;;;;8.98;3.67;;;;;;;;;;6192825;23;20013;-78
2023/03/12 02:01:48;;;;;;;9.05;3.75;;;;;;;;;;6192933;23;20012;-78
2023/03/12 02:04:15;;;;;;;6.03;3.47;;;;;;;;;;6192500;23;20073;-78
2023/03/12 02:07:03;;;;;;;5.00;3.17;;;;;;;;;;6191996;23;20008;-78
2023/03/12 02:09:31;;;;;;;9.88;3.88;;;;;;;;;;6192788;23;19997;-78
2023/03/12 02:11:57;;;;;;;6.85;3.55;;;;;;;;;;6191082;23;20024;-78
2023/03/12 02:14:23;;;;;;;5.63;3.33;;;;;;;;;;6192501;23;20005;-78
2023/03/12 02:16:49;;;;;;;7.53;3.35;;;;;;;;;;6192655;23;20455;-78
2023/03/12 02:19:18;;;;;;;8.13;3.55;;;;;;;;;;6193883;23;19997;-78
2023/03/12 02:21:44;;;;;;;7.35;3.60;;;;;;;;;;6193485;23;20327;-78
2023/03/12 02:24:33;;;;;;;5.45;3.25;;;;;;;;;;6192876;23;20642;-78
2023/03/12 02:27:12;;;;;;;5.10;2.97;;;;;;;;;;6177814;23;20009;-78
2023/03/12 02:29:52;;;;;;;12.00;3.42;;;;;;;;;;6190980;23;20004;-78
2023/03/12 02:32:18;;;;;;;;;;;;;;;;;;6190993;23;20005;-78
2023/03/12 02:34:44;;;;;;;6.45;3.35;;;;;;;;;;6190459;23;19907;-78
2023/03/12 02:37:10;;;;;;;7.15;2.83;;;;;;;;;;6190902;23;20002;-78
2023/03/12 02:39:36;;;;;;;8.38;2.90;;;;;;;;;;6190465;23;20020;-78
2023/03/12 02:42:03;;;;;;;7.82;3.00;;;;;;;;;;6190861;23;19997;-78
2023/03/12 02:44:33;;;;;;;5.00;2.72;;;;;;;;;;6191309;23;20009;-78
2023/03/12 02:47:00;;;;;;;6.82;3.53;;;;;;;;;;6191410;23;20001;-78
2023/03/12 02:49:28;;;;;;;5.55;3.13;;;;;;;;;;6191250;23;20028;-78
2023/03/12 02:51:55;;;;;;;6.63;3.40;;;;;;;;;;6190967;23;20004;-78
2023/03/12 02:54:21;;;;;;;6.55;3.30;;;;;;;;;;6190110;23;20001;-78
2023/03/12 02:56:47;;;;;;;6.00;3.05;;;;;;;;;;6190450;23;20001;-78
2023/03/12 02:59:14;;;;;;;7.25;3.53;;;;;;;;;;6190718;23;20047;-78
2023/03/12 03:01:40;;;;;;;6.80;3.63;;;;;;;;;;6190896;23;20001;-78
2023/03/12 03:04:07;;;;;;;6.90;3.33;;;;;;;;;;6190577;23;20013;-78
2023/03/12 03:06:34;;;;;;;6.82;3.83;;;;;;;;;;6190341;23;20008;-78
2023/03/12 03:09:00;;;;;;;6.00;3.17;;;;;;;;;;6189989;23;20020;-78
2023/03/12 03:11:26;;;;;;;9.68;3.92;;;;;;;;;;6190585;23;20005;-78
2023/03/12 03:13:53;;;;;;;7.32;4.20;;;;;;;;;;6190254;23;20055;-78
2023/03/12 03:16:19;;;;;;;5.22;3.88;;;;;;;;;;6189589;23;19997;-78
2023/03/12 03:18:45;;;;;;;5.82;4.13;;;;;;;;;;6189699;23;20001;-78
2023/03/12 03:21:15;;;;;;;10.32;4.55;;;;;;;;;;6190347;23;19997;-78
2023/03/12 03:23:42;;;;;;;6.63;4.18;;;;;;;;;;6189964;23;20010;-78
2023/03/12 03:26:08;;;;;;;6.30;4.07;;;;;;;;;;6190167;23;20359;-78
2023/03/12 03:28:34;;;;;;;5.38;3.70;;;;;;;;;;6189385;23;20542;-78
2023/03/12 03:31:00;;;;;;;5.13;3.72;;;;;;;;;;6189416;23;19997;-78
2023/03/12 03:33:31;;;;;;;6.90;4.03;;;;;;;;;;6190272;23;20005;-78
2023/03/12 03:35:58;;;;;;;8.32;3.90;;;;;;;;;;6189267;23;20039;-78
2023/03/12 03:38:25;;;;;;;8.35;4.63;;;;;;;;;;6190025;23;20001;-78
2023/03/12 03:40:51;;;;;;;7.78;4.60;;;;;;;;;;6189528;23;20004;-78
2023/03/12 03:43:17;;;;;;;8.65;4.07;;;;;;;;;;6189714;23;20072;-78
2023/03/12 03:45:43;;;;;;;7.18;4.07;;;;;;;;;;6190023;23;20009;-78
2023/03/12 03:48:10;;;;;;;7.63;3.92;;;;;;;;;;6190875;23;20072;-80
2023/03/12 03:50:37;;;;;;;6.50;3.92;;;;;;;;;;6189882;23;20001;-79
2023/03/12 03:53:03;;;;;;;12.52;5.00;;;;;;;;;;6189285;23;20072;-79
2023/03/12 03:55:30;;;;;;;8.80;3.78;;;;;;;;;;6190143;23;20012;-78
2023/03/12 03:57:56;;;;;;;9.85;4.82;;;;;;;;;;6189247;23;20328;-78
2023/03/12 04:00:22;;;;;;;8.57;4.20;;;;;;;;;;6189685;23;19997;-78
2023/03/12 04:02:48;;;;;;;7.57;4.53;;;;;;;;;;6189344;23;20632;-78
2023/03/12 04:05:18;;;;;;;8.80;5.00;;;;;;;;;;6189707;23;20008;-79
2023/03/12 04:07:44;;;;;;;8.53;4.73;;;;;;;;;;6162365;23;20419;-79
2023/03/12 04:10:10;;;;;;;7.68;4.07;;;;;;;;;;6189208;23;20211;-78
2023/03/12 04:12:36;;;;;;;7.03;4.50;;;;;;;;;;6188777;23;20416;-78
2023/03/12 04:15:02;;;;;;;6.18;4.07;;;;;;;;;;6188964;23;20072;-78
2023/03/12 04:17:28;;;;;;;9.27;4.28;;;;;;;;;;6189222;23;20013;-78
2023/03/12 04:19:54;;;;;;;5.95;3.70;;;;;;;;;;6188947;23;20084;-78
2023/03/12 04:22:20;;;;;;;7.68;4.05;;;;;;;;;;6189035;23;20412;-79
2023/03/12 04:24:46;;;;;;;6.47;4.15;;;;;;;;;;6188540;23;20080;-78
2023/03/12 04:27:12;;;;;;;6.55;3.88;;;;;;;;;;6189198;23;19997;-78
2023/03/12 04:29:39;;;;;;;6.75;4.43;;;;;;;;;;6189245;23;19997;-78
2023/03/12 04:32:06;;;;;;;7.57;3.72;;;;;;;;;;6188880;23;20363;-78
2023/03/12 04:34:32;;;;;;;5.70;4.00;;;;;;;;;;6188569;23;20008;-78
2023/03/12 04:37:06;;;;;;;7.55;4.18;;;;;;;;;;6189005;23;20005;-78
2023/03/12 04:39:33;;;;;;;7.80;4.68;;;;;;;;;;6189621;23;20001;-78
2023/03/12 04:41:59;;;;;;;6.65;4.05;;;;;;;;;;6190096;23;20001;-79
2023/03/12 04:44:25;;;;;;;6.82;3.97;;;;;;;;;;6189415;23;20009;-79
2023/03/12 04:46:50;;;;;;;7.63;3.95;;;;;;;;;;6190065;23;19997;-79
2023/03/12 04:49:16;;;;;;;7.32;4.20;;;;;;;;;;6189714;23;20008;-79
2023/03/12 04:51:42;;;;;;;10.13;3.92;;;;;;;;;;6189047;23;19997;-78
2023/03/12 04:54:08;;;;;;;9.88;4.22;;;;;;;;;;6189358;23;20013;-78
2023/03/12 04:56:34;;;;;;;8.65;3.72;;;;;;;;;;6189650;23;20032;-78
2023/03/12 04:59:00;;;;;;;6.15;3.72;;;;;;;;;;6188937;23;20013;-78
2023/03/12 05:01:28;;;;;;;7.63;4.20;;;;;;;;;;6189253;23;20003;-79
2023/03/12 05:03:54;;;;;;;8.63;4.65;;;;;;;;;;6188725;23;20008;-78
2023/03/12 05:06:21;;;;;;;9.45;4.38;;;;;;;;;;6189135;23;19997;-78
2023/03/12 05:08:47;;;;;;;7.25;4.13;;;;;;;;;;6189417;23;20001;-78
2023/03/12 05:11:14;;;;;;;6.28;4.13;;;;;;;;;;6189337;23;20113;-78
2023/03/12 05:13:40;;;;;;;6.15;3.90;;;;;;;;;;6188628;23;20001;-79
2023/03/12 05:16:06;;;;;;;5.50;3.90;;;;;;;;;;6188638;23;20005;-79
2023/03/12 05:18:32;;;;;;;8.10;4.20;;;;;;;;;;6188783;23;20027;-79
2023/03/12 05:21:35;;;;;;;5.93;4.00;;;;;;;;;;6189138;23;20031;-78
2023/03/12 05:24:03;;;;;;;5.78;3.80;;;;;;;;;;6188746;23;20077;-78
2023/03/12 05:26:32;;;;;;;8.57;4.82;;;;;;;;;;6188523;23;20363;-78
2023/03/12 05:28:59;;;;;;;9.25;3.83;;;;;;;;;;6162569;23;20112;-79
2023/03/12 05:31:26;;;;;;;10.18;4.40;;;;;;;;;;6188427;23;20048;-79
2023/03/12 05:33:52;;;;;;;7.82;3.67;;;;;;;;;;6187981;23;20032;-78
2023/03/12 05:36:18;;;;;;;5.60;4.20;;;;;;;;;;6188401;23;20008;-78
2023/03/12 05:38:44;;;;;;;8.07;4.05;;;;;;;;;;6188279;23;19997;-78
2023/03/12 05:41:29;;;;;;;8.35;4.00;;;;;;;;;;6188234;23;20022;-78
2023/03/12 05:43:55;;;;;;;6.57;4.38;;;;;;;;;;6188603;23;20301;-79
2023/03/12 05:46:22;;;;;;;10.02;4.47;;;;;;;;;;6188523;23;20004;-78
2023/03/12 05:48:48;;;;;;;10.43;4.10;;;;;;;;;;6188379;23;20001;-78
2023/03/12 05:51:15;;;;;;;6.03;4.25;;;;;;;;;;6189549;23;20076;-79
2023/03/12 05:53:41;;;;;;;6.15;4.07;;;;;;;;;;6190253;23;20003;-78
2023/03/12 05:56:08;;;;;;;6.53;4.30;;;;;;;;;;6190601;23;20068;-78
2023/03/12 05:58:34;;;;;;;7.60;3.75;;;;;;;;;;6191086;23;20017;-78
2023/03/12 06:01:01;;;;;;;6.97;3.65;;;;;;;;;;6190530;23;20001;-78
2023/03/12 06:03:27;;;;;;;7.13;4.15;;;;;;;;;;6190524;23;20420;-78
2023/03/12 06:06:08;;;;;;;8.77;4.10;;;;;;;;;;6190971;23;20336;-79
2023/03/12 06:08:34;;;;;;;6.70;3.72;;;;;;;;;;6190251;23;19997;-78
2023/03/12 06:11:00;;;;;;;9.32;2.78;;;;;;;;;;6190121;23;20012;-78
2023/03/12 06:13:27;;;;;;;7.20;3.17;;;;;;;;;;6190345;23;20028;-78
2023/03/12 06:15:53;;;;;;;6.97;3.45;;;;;;;;;;6190476;23;20001;-78
2023/03/12 06:18:19;;;;;;;5.30;3.28;;;;;;;;;;6190032;23;19997;-78
2023/03/12 06:20:45;;;;;;;3.95;3.00;;;;;;;;;;6190043;23;20524;-78
2023/03/12 06:23:11;;;;;;;5.53;2.50;;;;;;;;;;6189445;23;20076;-79
2023/03/12 06:25:37;;;;;;;9.05;3.15;;;;;;;;;;6192225;23;20013;-78
2023/03/12 06:28:03;;;;;;;5.07;3.10;;;;;;;;;;6191670;23;19993;-79
2023/03/12 06:30:29;;;;;;;4.88;3.15;;;;;;;;;;6198263;23;20009;-78
2023/03/12 06:32:55;;;;;;;6.32;2.97;;;;;;;;;;6198563;23;20044;-78
2023/03/12 06:35:21;;;;;;;3.95;2.63;;;;;;;;;;6192883;23;20063;-78
2023/03/12 06:37:47;;;;;;;5.25;3.38;;;;;;;;;;6191817;23;20021;-79
2023/03/12 06:40:13;;;;;;;4.03;2.67;;;;;;;;;;6187955;23;20083;-77
2023/03/12 06:42:39;;;;;;;4.10;2.90;;;;;;;;;;6187610;23;19993;-77
2023/03/12 06:45:05;;;;;;;6.32;3.45;;;;;;;;;;6187231;23;20009;-77
2023/03/12 06:47:47;;;;;;;8.65;3.50;;;;;;;;;;6187407;23;19998;-77
2023/03/12 06:50:19;;;;;;;6.20;3.88;;;;;;;;;;6187516;23;20012;-77
2023/03/12 06:52:45;;;;;;;9.48;3.88;;;;;;;;;;6187601;23;20005;-77
2023/03/12 06:55:11;;;;;;;7.03;3.58;;;;;;;;;;6187372;23;20001;-77
2023/03/12 06:57:37;;;;;;;7.35;3.83;;;;;;;;;;6187190;23;20008;-77
2023/03/12 07:00:04;;;;;;;7.43;4.82;;;;;;;;;;6187227;23;20024;-77
2023/03/12 07:02:30;;;;;;;7.13;3.67;;;;;;;;;;6160440;23;20091;-77
2023/03/12 07:04:56;;;;;;;6.03;3.70;;;;;;;;;;6187904;23;20381;-77
2023/03/12 07:07:22;;;;;;;5.75;3.50;;;;;;;;;;6188240;23;20024;-77
2023/03/12 07:09:48;;;;;;;5.72;4.07;;;;;;;;;;6187445;23;20032;-77
2023/03/12 07:12:14;;;;;;;6.88;3.80;;;;;;;;;;6187299;23;19997;-77
2023/03/12 07:14:40;;;;;;;4.90;3.75;;;;;;;;;;6186999;23;20675;-77
2023/03/12 07:17:06;;;;;;;6.53;4.22;;;;;;;;;;6187189;23;20005;-77
2023/03/12 07:19:49;;;;;;;7.47;3.78;;;;;;;;;;6186769;23;20372;-77
2023/03/12 07:22:15;;;;;;;8.05;4.03;;;;;;;;;;6187511;23;20001;-77
2023/03/12 07:24:42;;;;;;;7.30;3.85;;;;;;;;;;6187158;23;20076;-77
2023/03/12 07:27:08;;;;;;;10.18;4.95;;;;;;;;;;6187400;23;20005;-78
2023/03/12 07:29:33;;;;;;;5.97;4.05;;;;;;;;;;6190427;23;20008;-78
2023/03/12 07:32:19;;;;;;;11.07;6.82;;;;;;;;;;6191344;23;20324;-78
2023/03/12 07:34:45;;;;;;;8.18;4.90;;;;;;;;;;6189632;23;20004;-78
2023/03/12 07:37:11;;;;;;;6.72;4.13;;;;;;;;;;6189717;23;20001;-78
2023/03/12 07:39:37;;;;;;;6.20;3.90;;;;;;;;;;6189724;23;20000;-78
2023/03/12 07:42:03;;;;;;;6.20;4.35;;;;;;;;;;6189004;23;20021;-78
2023/03/12 07:44:29;;;;;;;6.38;3.85;;;;;;;;;;6187914;23;20009;-77
2023/03/12 07:46:55;;;;;;;5.97;4.45;;;;;;;;;;6187739;23;19994;-78
2023/03/12 07:49:21;;;;;;;6.18;3.80;;;;;;;;;;6189017;23;20008;-78
2023/03/12 07:51:47;;;;;;;7.53;4.40;;;;;;;;;;6189130;23;20400;-78
2023/03/12 07:54:13;;;;;;;9.15;4.90;;;;;;;;;;6188825;23;20008;-78
2023/03/12 07:56:39;;;;;;;6.47;4.25;;;;;;;;;;6189448;23;20001;-78
2023/03/12 07:59:05;;;;;;;7.22;4.13;;;;;;;;;;6191669;23;20021;-78
2023/03/12 08:01:31;;;;;;;6.40;4.05;;;;;;;;;;6189310;23;20002;-78
2023/03/12 08:04:01;;;;;;;8.27;4.63;;;;;;;;;;6187523;23;20020;-78
2023/03/12 08:06:27;;;;;;;8.85;4.93;;;;;;;;;;6190922;23;20036;-78
2023/03/12 08:08:53;;;;;;;5.80;3.83;;;;;;;;;;6191248;23;20312;-78
2023/03/12 08:11:20;;;;;;;9.02;4.55;;;;;;;;;;6191155;23;19993;-77
2023/03/12 08:13:46;;;;;;;8.98;4.60;;;;;;;;;;6185028;23;20427;-77
2023/03/12 08:16:13;;;;;;;7.90;4.20;;;;;;;;;;6185685;23;20481;-77
2023/03/12 08:18:41;;;;;;;8.18;4.22;;;;;;;;;;6186070;23;20007;-77
2023/03/12 08:21:07;;;;;;;7.70;4.25;;;;;;;;;;6185854;23;20001;-77
2023/03/12 08:23:34;;;;;;;8.27;3.92;;;;;;;;;;6185817;23;19998;-77
2023/03/12 08:26:00;;;;;;;8.23;3.92;;;;;;;;;;6185762;23;20055;-77
2023/03/12 08:28:26;;;;;;;4.97;3.78;;;;;;;;;;6185979;23;20084;-77
2023/03/12 08:30:53;;;;;;;6.55;3.97;;;;;;;;;;6185907;23;19996;-77
2023/03/12 08:33:20;;;;;;;5.22;3.90;;;;;;;;;;6185249;23;20124;-77
2023/03/12 08:35:46;;;;;;;5.90;4.05;;;;;;;;;;6185380;23;20442;-77
2023/03/12 08:38:12;;;;;;;6.93;3.95;;;;;;;;;;6185414;23;19994;-77
2023/03/12 08:40:38;;;;;;;5.43;3.50;;;;;;;;;;6185772;23;20080;-77
2023/03/12 08:43:06;;;;;;;5.70;3.67;;;;;;;;;;6185793;23;20372;-77
2023/03/12 08:45:32;;;;;;;4.85;3.67;;;;;;;;;;6186239;23;20009;-77
2023/03/12 08:47:58;;;;;;;5.40;4.03;;;;;;;;;;6185485;23;19997;-77
2023/03/12 08:50:28;;;;;;;5.88;3.60;;;;;;;;;;6186325;23;20029;-77
2023/03/12 08:52:54;;;;;;;6.00;4.00;;;;;;;;;;6159392;23;20040;-77
2023/03/12 08:55:20;;;;;;;5.85;4.43;;;;;;;;;;6186005;23;20007;-77
2023/03/12 08:57:46;;;;;;;4.28;3.63;;;;;;;;;;6185478;23;20005;-77
2023/03/12 09:00:13;;;;;;;5.22;3.63;;;;;;;;;;6186224;23;20001;-77
2023/03/12 09:02:40;;;;;;;6.10;4.82;;;;;;;;;;6186560;23;20002;-78
2023/03/12 09:05:06;;;;;;;7.30;4.15;;;;;;;;;;6189240;23;20012;-78
2023/03/12 09:07:32;;;;;;;6.28;4.38;;;;;;;;;;6189016;23;20004;-78
2023/03/12 09:09:59;;;;;;;7.05;4.15;;;;;;;;;;6187250;23;20475;-77
2023/03/12 09:12:25;;;;;;;7.65;4.68;;;;;;;;;;6188049;23;20036;-78
2023/03/12 09:14:51;;;;;;;9.95;5.07;;;;;;;;;;6188521;23;20001;-77
2023/03/12 09:17:18;;;;;;;6.10;4.43;;;;;;;;;;6187923;23;20001;-77
2023/03/12 09:19:44;;;;;;;9.23;4.25;;;;;;;;;;6188024;23;19997;-77
2023/03/12 09:22:10;;;;;;;7.95;4.85;;;;;;;;;;6187899;23;19997;-77
2023/03/12 09:24:36;;;;;;;7.13;4.75;;;;;;;;;;6188071;23;20012;-77
2023/03/12 09:27:03;;;;;;;8.10;5.30;;;;;;;;;;6189157;23;20353;-78
2023/03/12 09:29:30;;;;;;;7.80;5.82;;;;;;;;;;6190448;23;19996;-78
2023/03/12 09:31:56;;;;;;;6.97;5.38;;;;;;;;;;6188403;23;20030;-77
2023/03/12 09:34:22;;;;;;;7.13;5.43;;;;;;;;;;6186958;23;20060;-77
2023/03/12 09:36:48;;;;;;;8.68;5.50;;;;;;;;;;6187482;23;20001;-77
2023/03/12 09:39:15;;;;;;;9.75;6.35;;;;;;;;;;6189544;23;20039;-77
2023/03/12 09:41:46;;;;;;;11.10;6.65;;;;;;;;;;6190017;23;20051;-78
2023/03/12 09:44:12;;;;;;;8.60;6.45;;;;;;;;;;6187877;23;20060;-77
2023/03/12 09:46:45;;;;;;;11.75;6.68;;;;;;;;;;6189256;23;20024;-78
2023/03/12 09:49:17;;;;;;;9.98;6.82;;;;;;;;;;6190544;23;20009;-77
2023/03/12 09:51:45;;;;;;;10.80;6.90;;;;;;;;;;6190571;23;20324;-78
2023/03/12 09:54:34;;;;;;;10.55;6.70;;;;;;;;;;6190666;23;20463;-78
2023/03/12 09:57:02;;;;;;;11.77;7.43;;;;;;;;;;6175164;23;20343;-78
2023/03/12 09:59:28;;;;;;;9.88;7.13;;;;;;;;;;6190453;23;20075;-78
2023/03/12 10:01:56;;;;;;;10.70;6.68;;;;;;;;;;6191064;23;20304;-78
2023/03/12 10:04:34;;;;;;;12.38;7.35;;;;;;;;;;6164366;23;20020;-78
2023/03/12 10:07:10;;;;;;;13.57;7.90;;;;;;;;;;6191323;23;20020;-78
2023/03/12 10:10:03;;;;;;;16.27;8.32;;;;;;;;;;6190896;23;20001;-78
2023/03/12 10:12:38;;;;;;;14.38;7.65;;;;;;;;;;6189472;23;20001;-78
2023/03/12 10:15:04;;;;;;;12.75;7.68;;;;;;;;;;6189219;23;20005;-77
2023/03/12 10:17:45;;;;;;;13.02;8.40;;;;;;;;;;6184396;23;20001;-77
2023/03/12 10:20:24;;;;;;;14.07;7.93;;;;;;;;;;6185086;23;20025;-77
2023/03/12 10:22:51;;;;;;;16.15;8.20;;;;;;;;;;6184363;23;20083;-77
2023/03/12 10:25:20;;;;;;;14.80;8.63;;;;;;;;;;6158430;23;20013;-77
2023/03/12 10:27:47;;;;;;;16.80;8.38;;;;;;;;;;6184833;23;20001;-77
2023/03/12 10:30:17;;;;;;;14.43;8.40;;;;;;;;;;6184919;23;20084;-77
2023/03/12 10:32:46;;;;;;;14.23;8.85;;;;;;;;;;6184753;23;20277;-77
2023/03/12 10:35:23;;;;;;;14.25;8.10;;;;;;;;;;6184370;23;20304;-77
2023/03/12 10:38:01;;;;;;;12.93;8.70;;;;;;;;;;6186123;23;20008;-77
2023/03/12 10:40:28;;;;;;;14.90;9.63;;;;;;;;;;6186523;23;20347;-77
2023/03/12 10:42:54;;;;;;;16.15;9.57;;;;;;;;;;6186533;23;20008;-77
2023/03/12 10:45:34;;;;;;;15.98;10.00;;;;;;;;;;6186258;23;20005;-76
2023/03/12 10:48:06;;;;;;;17.00;9.17;;;;;;;;;;6186539;23;20319;-76
2023/03/12 10:50:35;;;;;;;16.42;9.88;;;;;;;;;;6186737;23;20008;-78
2023/03/12 10:53:34;;;;;;;18.60;10.50;;;;;;;;;;6186647;23;20072;-77
2023/03/12 10:56:19;;;;;;;17.20;10.43;;;;;;;;;;6120828;23;20408;-77
2023/03/12 10:58:49;;;;;;;17.63;10.82;;;;;;;;;;6186029;23;20304;-77
2023/03/12 11:01:15;;;;;;;17.80;10.73;;;;;;;;;;6186089;23;20001;-77
2023/03/12 11:03:42;;;;;;;17.65;10.65;;;;;;;;;;6186278;23;20003;-77
2023/03/12 11:06:14;;;;;;;18.42;10.13;;;;;;;;;;6186082;23;20415;-77
2023/03/12 11:08:41;;;;;;;17.52;9.95;;;;;;;;;;6186692;23;20001;-77
2023/03/12 11:11:07;;;;;;;17.02;9.88;;;;;;;;;;6186198;23;20028;-77
2023/03/12 11:13:38;;;;;;;18.15;9.38;;;;;;;;;;6186176;23;20004;-77
2023/03/12 11:16:03;;;;;;;;;;;;;;;;;;6186822;23;20308;-77
2023/03/12 11:18:34;;;;;;;17.02;9.07;;;;;;;;;;6186079;23;20338;-77
2023/03/12 11:21:09;;;;;;;16.15;9.13;;;;;;;;;;6186196;23;19997;-77
2023/03/12 11:23:35;;;;;;;17.08;8.88;;;;;;;;;;6186033;23;20001;-77
2023/03/12 11:26:03;;;;;;;19.92;8.95;;;;;;;;;;6185916;23;20016;-77
2023/03/12 11:28:34;;;;;;;20.30;8.82;;;;;;;;;;6185916;23;20012;-77
2023/03/12 11:31:00;;;;;;;19.90;7.13;;;;;;;;;;6186068;23;20075;-77
2023/03/12 11:33:26;;;;;;;23.00;6.30;;;;;;;;;;6185950;23;20001;-77
2023/03/12 11:36:00;;;;;;;22.30;6.28;;;;;;;;;;6185841;23;20005;-77
2023/03/12 11:38:36;;;;;;;30.08;6.88;;;;;;;;;;6186303;23;19997;-77
2023/03/12 11:41:31;;;;;;;22.88;6.38;;;;;;;;;;6186144;23;20442;-77
2023/03/12 11:43:57;;;;;;;33.67;7.35;;;;;;;;;;6160232;23;20005;-77
2023/03/12 11:46:42;;;;;;;29.27;6.80;;;;;;;;;;6185947;23;19994;-77
2023/03/12 11:49:28;;;;;;;19.85;6.75;;;;;;;;;;6185331;23;19997;-78
2023/03/12 11:55:16;;;;;;;22.77;5.75;;;;;;;;;;6198560;23;20084;-80
2023/03/12 11:57:45;;;;;;;16.05;4.72;;;;;;;;;;6187896;23;20005;-80
2023/03/12 12:00:16;;;;;;;28.00;5.50;;;;;;;;;;6189085;23;20494;-80
2023/03/12 12:02:42;;;;;;;16.75;5.00;;;;;;;;;;6190666;23;20123;-80
2023/03/12 12:05:20;;;;;;;16.42;5.35;;;;;;;;;;6188358;23;20193;-81
2023/03/12 12:08:05;;;;;;;20.58;4.88;;;;;;;;;;6188475;23;20001;-80
2023/03/12 12:10:43;;;;;;;16.85;4.30;;;;;;;;;;6187569;23;19997;-81
2023/03/12 12:13:41;;;;;;;18.40;4.82;;;;;;;;;;6188243;23;20001;-80
2023/03/12 12:16:22;;;;;;;20.45;5.05;;;;;;;;;;6123676;23;20023;-80
2023/03/12 12:19:00;;;;;;;22.77;4.07;;;;;;;;;;6188619;23;20012;-81
2023/03/12 12:21:36;;;;;;;23.45;4.28;;;;;;;;;;6188927;23;20000;-81
2023/03/12 12:24:05;;;;;;;17.35;3.60;;;;;;;;;;6188625;23;20019;-81
2023/03/12 12:26:35;;;;;;;22.88;4.45;;;;;;;;;;6190097;23;20008;-80
2023/03/12 12:29:24;;;;;;;19.70;4.18;;;;;;;;;;6189708;23;20004;-80
2023/03/12 12:31:50;;;;;;;15.70;3.67;;;;;;;;;;6188956;23;20003;-79
2023/03/12 12:34:35;;;;;;;17.45;4.05;;;;;;;;;;6189837;23;20008;-80
2023/03/12 12:37:04;;;;;;;16.08;3.72;;;;;;;;;;6193161;23;19997;-80
2023/03/12 12:39:33;;;;;;;17.73;3.85;;;;;;;;;;6188546;23;19997;-80
2023/03/12 12:42:03;;;;;;;18.13;3.58;;;;;;;;;;6189197;23;20008;-81
2023/03/12 12:44:49;;;;;;;14.80;3.60;;;;;;;;;;6188936;23;20005;-81
2023/03/12 12:47:21;;;;;;;14.50;3.60;;;;;;;;;;6187982;23;20427;-81
2023/03/12 12:49:47;;;;;;;20.85;3.38;;;;;;;;;;6189290;23;19997;-81
2023/03/12 12:52:17;;;;;;;20.05;3.53;;;;;;;;;;6194699;23;20326;-82
2023/03/12 12:54:43;;;;;;;14.40;3.30;;;;;;;;;;6194930;23;20001;-82
2023/03/12 12:57:18;;;;;;;19.42;3.75;;;;;;;;;;6188916;23;20660;-82
2023/03/12 12:59:50;;;;;;;16.27;3.67;;;;;;;;;;6189055;23;20039;-82
2023/03/12 13:02:19;;;;;;;15.93;3.00;;;;;;;;;;6190281;23;20308;-82
2023/03/12 13:04:45;;;;;;;15.23;2.97;;;;;;;;;;6191777;23;20432;-82
2023/03/12 13:07:11;;;;;;;16.23;3.40;;;;;;;;;;6188700;23;19997;-82
2023/03/12 13:09:49;;;;;;;20.75;3.95;;;;;;;;;;6190669;23;20004;-82
2023/03/12 13:12:24;;;;;;;18.23;3.33;;;;;;;;;;6167695;23;20001;-82
2023/03/12 13:14:51;;;;;;;15.25;3.53;;;;;;;;;;6186958;23;20001;-80
2023/03/12 13:17:30;;;;;;;24.17;4.78;;;;;;;;;;6187538;23;20466;-81
2023/03/12 13:20:11;;;;;;;24.92;4.32;;;;;;;;;;6189343;23;20007;-81
2023/03/12 13:22:37;;;;;;;21.42;3.75;;;;;;;;;;6187025;23;19998;-81
2023/03/12 13:25:18;;;;;;;19.58;3.83;;;;;;;;;;6186858;23;20012;-81
2023/03/12 13:27:45;;;;;;;17.80;4.35;;;;;;;;;;6190599;23;20004;-81
2023/03/12 13:30:46;;;;;;;18.42;4.32;;;;;;;;;;6189936;23;20024;-81
2023/03/12 13:33:14;;;;;;;18.13;3.95;;;;;;;;;;6069064;23;20030;-81
2023/03/12 13:35:40;;;;;;;20.73;3.65;;;;;;;;;;6165231;23;20027;-81
2023/03/12 13:38:11;;;;;;;19.10;3.53;;;;;;;;;;6187015;23;20008;-81
2023/03/12 13:40:54;;;;;;;21.52;4.03;;;;;;;;;;6162215;23;20001;-81
2023/03/12 13:43:38;;;;;;;18.42;3.40;;;;;;;;;;6186750;23;20005;-81
2023/03/12 13:46:06;;;;;;;19.67;3.45;;;;;;;;;;6186826;23;20748;-81
2023/03/12 13:48:34;;;;;;;24.42;4.55;;;;;;;;;;6163316;23;20077;-81
2023/03/12 13:51:10;;;;;;;19.40;4.05;;;;;;;;;;6187497;23;20529;-81
2023/03/12 13:53:38;;;;;;;17.38;3.67;;;;;;;;;;6159938;23;20001;-81
2023/03/12 13:56:11;;;;;;;18.98;3.00;;;;;;;;;;6187032;23;20027;-81
2023/03/12 13:58:43;;;;;;;21.02;3.50;;;;;;;;;;6188435;23;20063;-81
2023/03/12 14:01:28;;;;;;;20.55;3.67;;;;;;;;;;6186373;23;20008;-81
2023/03/12 14:03:56;;;;;;;21.60;4.50;;;;;;;;;;6188345;23;20093;-81
2023/03/12 14:06:27;;;;;;;14.38;3.40;;;;;;;;;;6186274;23;20000;-81
2023/03/12 14:09:00;;;;;;;17.48;3.00;;;;;;;;;;6186866;23;20076;-81
2023/03/12 14:11:45;;;;;;;15.60;3.75;;;;;;;;;;6188243;23;20060;-81
2023/03/12 14:14:30;;;;;;;18.55;3.33;;;;;;;;;;6189626;23;20379;-81
2023/03/12 14:16:57;;;;;;;22.58;3.58;;;;;;;;;;6188735;23;20092;-81
2023/03/12 14:19:25;;;;;;;20.48;3.90;;;;;;;;;;6188096;23;20024;-81
2023/03/12 14:21:52;;;;;;;24.85;3.90;;;;;;;;;;6162946;23;20047;-81
2023/03/12 14:24:29;;;;;;;22.65;3.97;;;;;;;;;;6188036;23;20001;-81
2023/03/12 14:26:56;;;;;;;22.30;3.75;;;;;;;;;;6189397;23;20004;-81
2023/03/12 14:29:27;;;;;;;25.23;5.20;;;;;;;;;;6190705;23;20013;-82
2023/03/12 14:31:56;;;;;;;25.38;3.90;;;;;;;;;;6189909;23;20008;-82
2023/03/12 14:34:22;;;;;;;30.17;4.00;;;;;;;;;;6191044;23;20308;-81
2023/03/12 14:36:54;;;;;;;26.13;3.50;;;;;;;;;;6191176;23;20001;-82
2023/03/12 14:39:30;;;;;;;25.95;3.78;;;;;;;;;;6191841;23;20092;-81
2023/03/12 14:42:00;;;;;;;18.80;3.95;;;;;;;;;;6193132;23;19997;-81
2023/03/12 14:44:28;;;;;;;25.55;4.07;;;;;;;;;;6192400;23;20005;-80
2023/03/12 14:47:00;;;;;;;18.13;3.30;;;;;;;;;;6191836;23;20072;-80
2023/03/12 14:49:26;;;;;;;25.52;4.63;;;;;;;;;;6192372;23;20001;-80
2023/03/12 14:51:53;;;;;;;24.70;4.30;;;;;;;;;;6192491;23;20006;-81
2023/03/12 14:54:22;;;;;;;31.55;6.10;;;;;;;;;;6166084;23;20012;-81